Decoded Metar for LHBP (BUDAPEST in HUNGARY) (IATA:BUD) | Meteo·Mobile Aviation Weather
aviador You're here:

LHBP Decoded Metar

BUDAPEST in HUNGARY
Report Time2018-08-22 06:30:00
UTC Time2018-08-22 06:58:08
Flight Rules vfr VFR
Wind350° at 06 kt
W.Decomp.*RWY 31: 4.9 kt HW 3.5 kt RCW
W.Rank350° ranks 15
Current wind is below 350° avg. (6.4)
Visibility9999 m
Phenomena:N/A
Clouds:N/A
Expected CloudBase > 2,400 ft AGL from Temp-Dew spread
CeilingNone
Temp23°C (ISA +9)
Dew Point17°C (69% RH)
QNH1019 hPa
Density Alt1,736 ft
Elevation607 ft
Report Wrong Elevation
Raw Report
LHBP 220630Z 35006KT 320V020 CAVOK 23/17 Q1019 NOSIG=

Extra information for LHBP:More info

Metar Taf Metar & Taf Last 4 Metars F.Rules Stats Wind Profile Meteogram Temp Stats Airport Information Weather charts Add Link Nearby VenuesMetar ALERT Operation Metar Decoded Social comments